sensor_id;sensor_type;location;lat;lon;timestamp;pressure;altitude;pressure_sealevel;temperature;humidity
66762;BME280;53672;48.176;16.338;2023-02-10T00:00:09;100983.47;;;-4.44;76.23
66762;BME280;53672;48.176;16.338;2023-02-10T00:05:11;100983.03;;;-4.58;77.28
66762;BME280;53672;48.176;16.338;2023-02-10T00:10:13;100987.44;;;-4.78;78.49
66762;BME280;53672;48.176;16.338;2023-02-10T00:15:13;100980.38;;;-4.87;80.16
66762;BME280;53672;48.176;16.338;2023-02-10T00:20:15;100983.28;;;-4.90;80.46
66762;BME280;53672;48.176;16.338;2023-02-10T00:25:16;100980.22;;;-4.95;80.64
66762;BME280;53672;48.176;16.338;2023-02-10T00:30:17;100990.03;;;-4.97;81.05
66762;BME280;53672;48.176;16.338;2023-02-10T00:35:18;100978.53;;;-5.06;81.17
66762;BME280;53672;48.176;16.338;2023-02-10T00:40:19;100988.75;;;-5.13;81.54
66762;BME280;53672;48.176;16.338;2023-02-10T00:45:20;100986.66;;;-5.19;81.72
66762;BME280;53672;48.176;16.338;2023-02-10T00:50:22;100985.25;;;-5.23;82.05
66762;BME280;53672;48.176;16.338;2023-02-10T00:55:22;100985.53;;;-5.26;82.25
66762;BME280;53672;48.176;16.338;2023-02-10T01:00:23;100986.75;;;-5.30;82.25
66762;BME280;53672;48.176;16.338;2023-02-10T01:05:26;100986.75;;;-5.30;82.44
66762;BME280;53672;48.176;16.338;2023-02-10T01:10:27;100989.69;;;-5.23;81.72
66762;BME280;53672;48.176;16.338;2023-02-10T01:15:28;100994.94;;;-5.23;81.56
66762;BME280;53672;48.176;16.338;2023-02-10T01:20:29;100998.31;;;-5.12;81.18
66762;BME280;53672;48.176;16.338;2023-02-10T01:25:30;100982.81;;;-5.15;80.61
66762;BME280;53672;48.176;16.338;2023-02-10T01:30:32;100982.38;;;-5.20;80.87
66762;BME280;53672;48.176;16.338;2023-02-10T01:35:37;100979.06;;;-5.22;80.63
66762;BME280;53672;48.176;16.338;2023-02-10T01:40:37;100973.06;;;-5.24;80.93
66762;BME280;53672;48.176;16.338;2023-02-10T01:45:38;100980.81;;;-5.32;81.58
66762;BME280;53672;48.176;16.338;2023-02-10T01:50:42;100980.53;;;-5.38;81.95
66762;BME280;53672;48.176;16.338;2023-02-10T01:55:46;100974.69;;;-5.42;82.34
66762;BME280;53672;48.176;16.338;2023-02-10T02:00:49;100961.38;;;-5.50;82.75
66762;BME280;53672;48.176;16.338;2023-02-10T02:05:51;100965.75;;;-5.60;83.05
66762;BME280;53672;48.176;16.338;2023-02-10T02:11:01;100957.31;;;-5.64;83.69
66762;BME280;53672;48.176;16.338;2023-02-10T02:16:10;100953.94;;;-5.75;83.88
66762;BME280;53672;48.176;16.338;2023-02-10T02:21:37;100955.19;;;-5.79;84.36
66762;BME280;53672;48.176;16.338;2023-02-10T02:26:47;100946.59;;;-5.81;84.30
66762;BME280;53672;48.176;16.338;2023-02-10T02:32:01;100960.19;;;-5.76;83.97
66762;BME280;53672;48.176;16.338;2023-02-10T02:37:10;100951.47;;;-5.77;83.74
66762;BME280;53672;48.176;16.338;2023-02-10T02:42:15;100961.00;;;-5.76;83.58
66762;BME280;53672;48.176;16.338;2023-02-10T02:47:34;100958.22;;;-5.74;82.71
66762;BME280;53672;48.176;16.338;2023-02-10T02:52:47;100964.13;;;-5.82;82.88
66762;BME280;53672;48.176;16.338;2023-02-10T02:57:54;100967.00;;;-5.94;83.30
66762;BME280;53672;48.176;16.338;2023-02-10T03:02:57;100974.81;;;-6.04;84.26
66762;BME280;53672;48.176;16.338;2023-02-10T03:07:58;100986.78;;;-6.11;84.73
66762;BME280;53672;48.176;16.338;2023-02-10T03:12:59;100987.47;;;-6.09;84.80
66762;BME280;53672;48.176;16.338;2023-02-10T03:18:01;100990.09;;;-6.09;84.45
66762;BME280;53672;48.176;16.338;2023-02-10T03:23:01;100992.63;;;-6.07;84.23
66762;BME280;53672;48.176;16.338;2023-02-10T03:28:02;100997.03;;;-6.08;84.50
66762;BME280;53672;48.176;16.338;2023-02-10T03:33:04;100997.97;;;-6.09;84.73
66762;BME280;53672;48.176;16.338;2023-02-10T03:38:05;101001.59;;;-6.10;84.84
66762;BME280;53672;48.176;16.338;2023-02-10T03:43:06;101002.53;;;-6.11;84.89
66762;BME280;53672;48.176;16.338;2023-02-10T03:48:08;100999.34;;;-6.14;85.28
66762;BME280;53672;48.176;16.338;2023-02-10T03:53:09;101003.63;;;-6.13;85.67
66762;BME280;53672;48.176;16.338;2023-02-10T03:58:10;101012.97;;;-6.21;85.96
66762;BME280;53672;48.176;16.338;2023-02-10T04:03:12;101016.06;;;-6.27;86.50
66762;BME280;53672;48.176;16.338;2023-02-10T04:08:12;101013.97;;;-6.33;87.11
66762;BME280;53672;48.176;16.338;2023-02-10T04:13:13;101014.69;;;-6.31;87.69
66762;BME280;53672;48.176;16.338;2023-02-10T04:18:14;101005.13;;;-6.32;87.96
66762;BME280;53672;48.176;16.338;2023-02-10T04:23:15;101009.88;;;-6.26;87.93
66762;BME280;53672;48.176;16.338;2023-02-10T04:28:15;101017.88;;;-6.27;87.71
66762;BME280;53672;48.176;16.338;2023-02-10T04:33:17;101008.03;;;-6.35;87.58
66762;BME280;53672;48.176;16.338;2023-02-10T04:38:18;101019.59;;;-6.37;87.67
66762;BME280;53672;48.176;16.338;2023-02-10T04:43:19;101021.91;;;-6.44;87.75
66762;BME280;53672;48.176;16.338;2023-02-10T04:48:21;101015.91;;;-6.46;87.93
66762;BME280;53672;48.176;16.338;2023-02-10T04:53:21;101029.75;;;-6.44;87.84
66762;BME280;53672;48.176;16.338;2023-02-10T04:58:22;101021.91;;;-6.44;87.68
66762;BME280;53672;48.176;16.338;2023-02-10T05:03:24;101039.41;;;-6.44;87.64
66762;BME280;53672;48.176;16.338;2023-02-10T05:08:25;101039.41;;;-6.44;87.65
66762;BME280;53672;48.176;16.338;2023-02-10T05:13:25;101034.03;;;-6.43;87.44
66762;BME280;53672;48.176;16.338;2023-02-10T05:18:27;101029.28;;;-6.49;88.03
66762;BME280;53672;48.176;16.338;2023-02-10T05:23:29;101039.88;;;-6.50;88.48
66762;BME280;53672;48.176;16.338;2023-02-10T05:28:29;101054.34;;;-6.56;88.59
66762;BME280;53672;48.176;16.338;2023-02-10T05:33:31;101050.53;;;-6.63;89.23
66762;BME280;53672;48.176;16.338;2023-02-10T05:38:32;101052.06;;;-6.49;89.28
66762;BME280;53672;48.176;16.338;2023-02-10T05:43:32;101053.84;;;-6.50;89.26
66762;BME280;53672;48.176;16.338;2023-02-10T05:48:34;101054.56;;;-6.48;88.92
66762;BME280;53672;48.176;16.338;2023-02-10T05:53:35;101071.25;;;-6.49;89.23
66762;BME280;53672;48.176;16.338;2023-02-10T05:58:35;101074.38;;;-6.55;89.65
66762;BME280;53672;48.176;16.338;2023-02-10T06:03:37;101074.34;;;-6.44;89.85
66762;BME280;53672;48.176;16.338;2023-02-10T06:08:38;101090.28;;;-6.47;89.11
66762;BME280;53672;48.176;16.338;2023-02-10T06:13:38;101096.13;;;-6.43;89.15
66762;BME280;53672;48.176;16.338;2023-02-10T06:18:40;101103.13;;;-6.33;89.35
66762;BME280;53672;48.176;16.338;2023-02-10T06:23:41;101109.88;;;-6.19;89.00
66762;BME280;53672;48.176;16.338;2023-02-10T06:28:41;101121.06;;;-6.06;88.98
66762;BME280;53672;48.176;16.338;2023-02-10T06:33:43;101114.94;;;-5.75;89.15
66762;BME280;53672;48.176;16.338;2023-02-10T06:38:44;101107.94;;;-5.44;88.71
66762;BME280;53672;48.176;16.338;2023-02-10T06:43:44;101110.94;;;-5.07;87.39
66762;BME280;53672;48.176;16.338;2023-02-10T06:48:46;101115.66;;;-4.61;85.25
66762;BME280;53672;48.176;16.338;2023-02-10T06:53:47;101130.16;;;-4.17;82.99
66762;BME280;53672;48.176;16.338;2023-02-10T06:58:47;101135.16;;;-3.66;80.26
66762;BME280;53672;48.176;16.338;2023-02-10T07:03:49;101140.38;;;-3.09;77.31
66762;BME280;53672;48.176;16.338;2023-02-10T07:08:50;101144.41;;;-2.50;72.78
66762;BME280;53672;48.176;16.338;2023-02-10T07:13:50;101148.50;;;-2.11;72.07
66762;BME280;53672;48.176;16.338;2023-02-10T07:18:52;101153.31;;;-1.61;69.68
66762;BME280;53672;48.176;16.338;2023-02-10T07:23:53;101144.16;;;-0.97;67.57
66762;BME280;53672;48.176;16.338;2023-02-10T07:28:53;101146.81;;;-0.30;65.01
66762;BME280;53672;48.176;16.338;2023-02-10T07:33:55;101150.94;;;0.31;61.77
66762;BME280;53672;48.176;16.338;2023-02-10T07:38:56;101150.41;;;0.84;58.89
66762;BME280;53672;48.176;16.338;2023-02-10T07:43:56;101150.47;;;1.31;57.13
66762;BME280;53672;48.176;16.338;2023-02-10T07:48:58;101154.66;;;1.72;55.35
66762;BME280;53672;48.176;16.338;2023-02-10T07:53:59;101159.22;;;2.17;53.39
66762;BME280;53672;48.176;16.338;2023-02-10T07:58:59;101163.63;;;2.55;52.50
66762;BME280;53672;48.176;16.338;2023-02-10T08:04:01;101172.66;;;3.06;51.03
66762;BME280;53672;48.176;16.338;2023-02-10T08:09:02;101185.16;;;3.50;49.07
66762;BME280;53672;48.176;16.338;2023-02-10T08:14:03;101189.50;;;4.16;48.41
66762;BME280;53672;48.176;16.338;2023-02-10T08:19:05;101194.69;;;4.60;46.47
66762;BME280;53672;48.176;16.338;2023-02-10T08:24:05;101201.84;;;5.23;45.53
66762;BME280;53672;48.176;16.338;2023-02-10T08:29:06;101191.78;;;5.94;43.96
66762;BME280;53672;48.176;16.338;2023-02-10T08:34:14;101194.50;;;6.87;41.73
66762;BME280;53672;48.176;16.338;2023-02-10T08:39:15;101191.75;;;8.17;39.08
66762;BME280;53672;48.176;16.338;2023-02-10T08:44:16;101199.94;;;13.26;30.46
66762;BME280;53672;48.176;16.338;2023-02-10T08:49:18;101197.63;;;16.94;24.38
66762;BME280;53672;48.176;16.338;2023-02-10T08:54:19;101185.44;;;18.11;22.78
66762;BME280;53672;48.176;16.338;2023-02-10T08:59:19;101186.16;;;16.67;24.12
66762;BME280;53672;48.176;16.338;2023-02-10T09:04:21;101183.16;;;17.34;23.59
66762;BME280;53672;48.176;16.338;2023-02-10T09:09:22;101188.66;;;17.19;23.53
66762;BME280;53672;48.176;16.338;2023-02-10T09:14:23;101199.53;;;17.59;22.82
66762;BME280;53672;48.176;16.338;2023-02-10T09:19:25;101194.72;;;19.32;20.92
66762;BME280;53672;48.176;16.338;2023-02-10T09:24:26;101202.31;;;21.74;19.06
66762;BME280;53672;48.176;16.338;2023-02-10T09:29:26;101202.59;;;22.41;17.45
66762;BME280;53672;48.176;16.338;2023-02-10T09:34:28;101201.91;;;23.07;17.04
66762;BME280;53672;48.176;16.338;2023-02-10T09:39:29;101210.88;;;23.66;16.05
66762;BME280;53672;48.176;16.338;2023-02-10T09:44:33;101211.06;;;23.78;16.07
66762;BME280;53672;48.176;16.338;2023-02-10T09:49:49;101212.09;;;24.56;15.40
66762;BME280;53672;48.176;16.338;2023-02-10T09:54:53;101195.19;;;24.32;15.74
66762;BME280;53672;48.176;16.338;2023-02-10T09:59:56;101211.38;;;25.70;14.50
66762;BME280;53672;48.176;16.338;2023-02-10T10:05:03;101197.44;;;25.58;15.32
66762;BME280;53672;48.176;16.338;2023-02-10T10:10:15;101195.56;;;26.67;14.06
66762;BME280;53672;48.176;16.338;2023-02-10T10:15:23;101176.84;;;26.85;13.51
66762;BME280;53672;48.176;16.338;2023-02-10T10:20:47;101184.84;;;25.78;14.74
66762;BME280;53672;48.176;16.338;2023-02-10T10:25:57;101171.59;;;25.63;14.63
66762;BME280;53672;48.176;16.338;2023-02-10T10:31:03;101160.03;;;26.49;14.40
66762;BME280;53672;48.176;16.338;2023-02-10T10:36:13;101157.69;;;27.82;12.70
66762;BME280;53672;48.176;16.338;2023-02-10T10:41:15;101139.09;;;27.46;13.00
66762;BME280;53672;48.176;16.338;2023-02-10T10:46:20;101149.97;;;28.92;11.76
66762;BME280;53672;48.176;16.338;2023-02-10T10:51:25;101131.56;;;28.99;11.37
66762;BME280;53672;48.176;16.338;2023-02-10T10:56:33;101136.00;;;29.79;11.01
66762;BME280;53672;48.176;16.338;2023-02-10T11:01:36;101125.69;;;29.32;11.63
66762;BME280;53672;48.176;16.338;2023-02-10T11:06:39;101126.41;;;29.76;11.43
66762;BME280;53672;48.176;16.338;2023-02-10T11:11:41;101122.53;;;29.96;11.01
66762;BME280;53672;48.176;16.338;2023-02-10T11:16:44;101098.34;;;30.35;10.12
66762;BME280;53672;48.176;16.338;2023-02-10T11:21:47;101084.72;;;30.88;9.54
66762;BME280;53672;48.176;16.338;2023-02-10T11:26:55;101093.56;;;31.12;9.33
66762;BME280;53672;48.176;16.338;2023-02-10T11:31:57;101085.13;;;29.94;9.57
66762;BME280;53672;48.176;16.338;2023-02-10T11:37:09;101072.50;;;27.67;10.59
66762;BME280;53672;48.176;16.338;2023-02-10T11:42:16;101072.72;;;23.81;15.59
66762;BME280;53672;48.176;16.338;2023-02-10T11:47:17;101059.81;;;22.36;17.42
66762;BME280;53672;48.176;16.338;2023-02-10T11:52:21;101059.41;;;19.53;19.19
66762;BME280;53672;48.176;16.338;2023-02-10T11:57:33;101067.34;;;16.10;19.78
66762;BME280;53672;48.176;16.338;2023-02-10T12:02:53;101078.97;;;14.50;21.94
66762;BME280;53672;48.176;16.338;2023-02-10T12:08:11;101069.38;;;13.62;23.89
66762;BME280;53672;48.176;16.338;2023-02-10T12:13:21;101071.69;;;13.75;23.54
66762;BME280;53672;48.176;16.338;2023-02-10T12:18:37;101071.25;;;13.61;23.40
66762;BME280;53672;48.176;16.338;2023-02-10T12:23:50;101069.91;;;13.04;22.90
66762;BME280;53672;48.176;16.338;2023-02-10T12:29:03;101069.00;;;12.15;23.90
66762;BME280;53672;48.176;16.338;2023-02-10T12:34:25;101070.09;;;12.02;24.31
66762;BME280;53672;48.176;16.338;2023-02-10T12:39:37;101064.44;;;11.36;25.84
66762;BME280;53672;48.176;16.338;2023-02-10T12:44:46;101066.94;;;10.79;27.14
66762;BME280;53672;48.176;16.338;2023-02-10T12:50:02;101061.38;;;10.39;28.07
66762;BME280;53672;48.176;16.338;2023-02-10T12:55:15;101059.16;;;10.36;28.89
66762;BME280;53672;48.176;16.338;2023-02-10T13:00:21;101055.56;;;10.54;28.12
66762;BME280;53672;48.176;16.338;2023-02-10T13:05:28;101060.94;;;10.12;28.15
66762;BME280;53672;48.176;16.338;2023-02-10T13:10:35;101057.41;;;10.42;27.70
66762;BME280;53672;48.176;16.338;2023-02-10T13:15:39;101039.25;;;10.07;27.74
66762;BME280;53672;48.176;16.338;2023-02-10T13:20:44;101040.09;;;9.30;28.41
66762;BME280;53672;48.176;16.338;2023-02-10T13:26:02;101044.75;;;9.53;28.77
66762;BME280;53672;48.176;16.338;2023-02-10T13:31:20;101041.28;;;9.34;29.30
66762;BME280;53672;48.176;16.338;2023-02-10T13:36:28;101036.28;;;9.38;28.43
66762;BME280;53672;48.176;16.338;2023-02-10T13:41:34;101046.97;;;9.44;28.59
66762;BME280;53672;48.176;16.338;2023-02-10T13:46:35;101050.59;;;8.95;29.37
66762;BME280;53672;48.176;16.338;2023-02-10T13:51:37;101052.13;;;8.42;30.25
66762;BME280;53672;48.176;16.338;2023-02-10T13:56:39;101047.69;;;8.23;31.09
66762;BME280;53672;48.176;16.338;2023-02-10T14:01:42;101056.53;;;7.98;31.71
66762;BME280;53672;48.176;16.338;2023-02-10T14:06:44;101063.84;;;7.85;31.80
66762;BME280;53672;48.176;16.338;2023-02-10T14:11:47;101063.88;;;7.78;32.27
66762;BME280;53672;48.176;16.338;2023-02-10T14:16:49;101058.41;;;7.53;32.67
66762;BME280;53672;48.176;16.338;2023-02-10T14:21:51;101059.97;;;7.23;33.65
66762;BME280;53672;48.176;16.338;2023-02-10T14:26:56;101069.28;;;7.14;34.03
66762;BME280;53672;48.176;16.338;2023-02-10T14:31:58;101069.31;;;7.07;34.78
66762;BME280;53672;48.176;16.338;2023-02-10T14:37:02;101076.50;;;7.07;34.43
66762;BME280;53672;48.176;16.338;2023-02-10T14:42:05;101083.72;;;7.13;34.35
66762;BME280;53672;48.176;16.338;2023-02-10T14:47:06;101082.50;;;7.02;34.94
66762;BME280;53672;48.176;16.338;2023-02-10T14:52:21;101081.28;;;6.79;36.16
66762;BME280;53672;48.176;16.338;2023-02-10T14:57:26;101073.47;;;6.38;37.36
66762;BME280;53672;48.176;16.338;2023-02-10T15:02:29;101086.97;;;5.90;39.97
66762;BME280;53672;48.176;16.338;2023-02-10T15:07:33;101088.44;;;5.52;39.44
66762;BME280;53672;48.176;16.338;2023-02-10T15:12:36;101088.53;;;5.24;40.06
66762;BME280;53672;48.176;16.338;2023-02-10T15:17:40;101093.69;;;4.91;41.65
66762;BME280;53672;48.176;16.338;2023-02-10T15:22:43;101107.16;;;4.55;43.36
66762;BME280;53672;48.176;16.338;2023-02-10T15:27:46;101103.41;;;4.29;42.97
66762;BME280;53672;48.176;16.338;2023-02-10T15:32:48;101105.38;;;3.99;43.98
66762;BME280;53672;48.176;16.338;2023-02-10T15:37:49;101106.19;;;3.78;44.40
66762;BME280;53672;48.176;16.338;2023-02-10T15:43:03;101108.78;;;3.57;45.50
66762;BME280;53672;48.176;16.338;2023-02-10T15:48:06;101103.94;;;3.31;46.46
66762;BME280;53672;48.176;16.338;2023-02-10T15:53:09;101110.66;;;3.13;46.42
66762;BME280;53672;48.176;16.338;2023-02-10T15:58:14;101113.59;;;3.03;47.24
66762;BME280;53672;48.176;16.338;2023-02-10T16:03:15;101102.75;;;2.90;47.89
66762;BME280;53672;48.176;16.338;2023-02-10T16:08:19;101112.94;;;2.86;47.34
66762;BME280;53672;48.176;16.338;2023-02-10T16:13:22;101122.75;;;2.86;47.57
66762;BME280;53672;48.176;16.338;2023-02-10T16:18:25;101131.34;;;2.73;48.10
66762;BME280;53672;48.176;16.338;2023-02-10T16:23:27;101127.09;;;2.64;49.12
66762;BME280;53672;48.176;16.338;2023-02-10T16:28:29;101114.81;;;2.63;49.10
66762;BME280;53672;48.176;16.338;2023-02-10T16:33:30;101118.53;;;2.54;49.23
66762;BME280;53672;48.176;16.338;2023-02-10T16:38:30;101130.97;;;2.39;50.04
66762;BME280;53672;48.176;16.338;2023-02-10T16:43:33;101136.66;;;2.36;50.35
66762;BME280;53672;48.176;16.338;2023-02-10T16:48:34;101140.69;;;2.32;50.23
66762;BME280;53672;48.176;16.338;2023-02-10T16:53:35;101132.03;;;2.30;50.37
66762;BME280;53672;48.176;16.338;2023-02-10T16:58:37;101145.31;;;2.30;50.48
66762;BME280;53672;48.176;16.338;2023-02-10T17:03:38;101138.06;;;2.24;50.58
66762;BME280;53672;48.176;16.338;2023-02-10T17:08:40;101144.56;;;2.21;51.02
66762;BME280;53672;48.176;16.338;2023-02-10T17:13:42;101140.09;;;2.22;50.64
66762;BME280;53672;48.176;16.338;2023-02-10T17:18:43;101142.44;;;2.17;51.10
66762;BME280;53672;48.176;16.338;2023-02-10T17:23:45;101141.47;;;2.10;51.58
66762;BME280;53672;48.176;16.338;2023-02-10T17:28:47;101147.50;;;2.03;51.81
66762;BME280;53672;48.176;16.338;2023-02-10T17:33:48;101150.56;;;1.92;51.97
66762;BME280;53672;48.176;16.338;2023-02-10T17:38:50;101148.09;;;1.91;52.04
66762;BME280;53672;48.176;16.338;2023-02-10T17:43:55;101147.97;;;1.84;52.00
66762;BME280;53672;48.176;16.338;2023-02-10T17:48:56;101143.38;;;1.70;52.48
66762;BME280;53672;48.176;16.338;2023-02-10T17:53:58;101155.19;;;1.68;52.86
66762;BME280;53672;48.176;16.338;2023-02-10T17:59:01;101155.56;;;1.57;53.48
66762;BME280;53672;48.176;16.338;2023-02-10T18:04:02;101156.56;;;1.47;54.21
66762;BME280;53672;48.176;16.338;2023-02-10T18:09:04;101157.59;;;1.46;54.59
66762;BME280;53672;48.176;16.338;2023-02-10T18:14:06;101150.09;;;1.50;54.35
66762;BME280;53672;48.176;16.338;2023-02-10T18:19:08;101151.94;;;1.49;54.39
66762;BME280;53672;48.176;16.338;2023-02-10T18:24:09;101150.75;;;1.52;54.68
66762;BME280;53672;48.176;16.338;2023-02-10T18:29:12;101143.47;;;1.46;55.58
66762;BME280;53672;48.176;16.338;2023-02-10T18:34:13;101146.28;;;1.44;54.89
66762;BME280;53672;48.176;16.338;2023-02-10T18:39:14;101146.47;;;1.43;55.80
66762;BME280;53672;48.176;16.338;2023-02-10T18:44:16;101145.13;;;1.47;55.16
66762;BME280;53672;48.176;16.338;2023-02-10T18:49:17;101135.00;;;1.50;54.78
66762;BME280;53672;48.176;16.338;2023-02-10T18:54:19;101142.97;;;1.50;54.71
66762;BME280;53672;48.176;16.338;2023-02-10T18:59:23;101141.72;;;1.61;53.97
66762;BME280;53672;48.176;16.338;2023-02-10T19:04:25;101148.06;;;1.60;54.12
66762;BME280;53672;48.176;16.338;2023-02-10T19:09:27;101144.56;;;1.68;53.59
66762;BME280;53672;48.176;16.338;2023-02-10T19:14:30;101148.97;;;1.75;53.18
66762;BME280;53672;48.176;16.338;2023-02-10T19:19:31;101154.78;;;1.79;52.75
66762;BME280;53672;48.176;16.338;2023-02-10T19:24:33;101152.91;;;1.87;52.54
66762;BME280;53672;48.176;16.338;2023-02-10T19:29:36;101153.88;;;1.94;52.24
66762;BME280;53672;48.176;16.338;2023-02-10T19:34:38;101146.75;;;1.95;52.21
66762;BME280;53672;48.176;16.338;2023-02-10T19:39:40;101150.88;;;1.97;52.17
66762;BME280;53672;48.176;16.338;2023-02-10T19:44:43;101147.25;;;1.90;52.45
66762;BME280;53672;48.176;16.338;2023-02-10T19:49:43;101150.38;;;1.94;52.29
66762;BME280;53672;48.176;16.338;2023-02-10T19:54:45;101149.31;;;2.03;52.39
66762;BME280;53672;48.176;16.338;2023-02-10T19:59:47;101148.47;;;2.11;51.85
66762;BME280;53672;48.176;16.338;2023-02-10T20:04:49;101138.34;;;2.06;51.99
66762;BME280;53672;48.176;16.338;2023-02-10T20:09:50;101138.41;;;1.98;52.79
66762;BME280;53672;48.176;16.338;2023-02-10T20:14:54;101136.44;;;1.92;52.68
66762;BME280;53672;48.176;16.338;2023-02-10T20:19:54;101141.47;;;1.87;53.34
66762;BME280;53672;48.176;16.338;2023-02-10T20:24:57;101140.84;;;1.77;53.58
66762;BME280;53672;48.176;16.338;2023-02-10T20:29:59;101144.00;;;1.72;53.85
66762;BME280;53672;48.176;16.338;2023-02-10T20:35:01;101150.38;;;1.63;54.14
66762;BME280;53672;48.176;16.338;2023-02-10T20:40:02;101145.91;;;1.64;54.02
66762;BME280;53672;48.176;16.338;2023-02-10T20:45:08;101139.41;;;1.58;53.95
66762;BME280;53672;48.176;16.338;2023-02-10T20:50:10;101140.47;;;1.49;54.67
66762;BME280;53672;48.176;16.338;2023-02-10T20:55:11;101151.59;;;1.44;55.01
66762;BME280;53672;48.176;16.338;2023-02-10T21:00:15;101144.81;;;1.34;55.17
66762;BME280;53672;48.176;16.338;2023-02-10T21:05:16;101146.53;;;1.19;55.63
66762;BME280;53672;48.176;16.338;2023-02-10T21:10:18;101142.09;;;1.03;56.42
66762;BME280;53672;48.176;16.338;2023-02-10T21:15:20;101147.28;;;0.88;57.45
66762;BME280;53672;48.176;16.338;2023-02-10T21:20:22;101138.81;;;0.85;57.88
66762;BME280;53672;48.176;16.338;2023-02-10T21:25:23;101135.63;;;0.97;57.32
66762;BME280;53672;48.176;16.338;2023-02-10T21:30:25;101134.81;;;0.97;57.73
66762;BME280;53672;48.176;16.338;2023-02-10T21:35:27;101130.66;;;1.02;57.73
66762;BME280;53672;48.176;16.338;2023-02-10T21:40:28;101131.81;;;1.00;57.93
66762;BME280;53672;48.176;16.338;2023-02-10T21:45:30;101129.03;;;0.85;58.11
66762;BME280;53672;48.176;16.338;2023-02-10T21:50:31;101120.09;;;0.70;58.78
66762;BME280;53672;48.176;16.338;2023-02-10T21:55:32;101129.53;;;0.57;59.60
66762;BME280;53672;48.176;16.338;2023-02-10T22:00:35;101132.03;;;0.42;60.28
66762;BME280;53672;48.176;16.338;2023-02-10T22:05:35;101129.72;;;0.31;61.04
66762;BME280;53672;48.176;16.338;2023-02-10T22:10:36;101140.13;;;0.24;61.17
66762;BME280;53672;48.176;16.338;2023-02-10T22:15:37;101143.13;;;0.13;61.88
66762;BME280;53672;48.176;16.338;2023-02-10T22:20:38;101137.63;;;-0.02;62.72
66762;BME280;53672;48.176;16.338;2023-02-10T22:25:43;101135.28;;;-0.05;63.05
66762;BME280;53672;48.176;16.338;2023-02-10T22:30:45;101142.22;;;-0.12;63.50
66762;BME280;53672;48.176;16.338;2023-02-10T22:35:45;101127.78;;;-0.25;63.97
66762;BME280;53672;48.176;16.338;2023-02-10T22:40:46;101134.53;;;-0.31;64.29
66762;BME280;53672;48.176;16.338;2023-02-10T22:45:50;101126.06;;;-0.42;64.76
66762;BME280;53672;48.176;16.338;2023-02-10T22:50:50;101128.41;;;-0.39;65.40
66762;BME280;53672;48.176;16.338;2023-02-10T22:55:51;101120.59;;;-0.49;65.59
66762;BME280;53672;48.176;16.338;2023-02-10T23:00:53;101112.28;;;-0.54;66.09
66762;BME280;53672;48.176;16.338;2023-02-10T23:05:53;101115.63;;;-0.52;66.25
66762;BME280;53672;48.176;16.338;2023-02-10T23:10:54;101110.94;;;-0.58;66.41
66762;BME280;53672;48.176;16.338;2023-02-10T23:15:56;101093.09;;;-0.56;66.49
66762;BME280;53672;48.176;16.338;2023-02-10T23:20:57;101092.75;;;-0.53;65.96
66762;BME280;53672;48.176;16.338;2023-02-10T23:25:57;101083.19;;;-0.46;65.80
66762;BME280;53672;48.176;16.338;2023-02-10T23:30:59;101075.56;;;-0.49;65.95
66762;BME280;53672;48.176;16.338;2023-02-10T23:36:03;101068.66;;;-0.42;65.31
66762;BME280;53672;48.176;16.338;2023-02-10T23:41:04;101064.00;;;-0.40;64.83
66762;BME280;53672;48.176;16.338;2023-02-10T23:46:07;101058.56;;;-0.38;64.91
66762;BME280;53672;48.176;16.338;2023-02-10T23:51:09;101053.44;;;-0.32;64.25
66762;BME280;53672;48.176;16.338;2023-02-10T23:56:12;101050.28;;;-0.35;64.73
